createdAt,value
2019-04-25T00:02:21.294Z,98834.94
2019-04-25T00:04:51.530Z,98844.94
2019-04-25T00:07:21.680Z,98842.41
2019-04-25T00:09:56.907Z,98857.73
2019-04-25T00:12:25.893Z,98862.19
2019-04-25T00:14:55.004Z,98864.45
2019-04-25T00:17:25.633Z,98851.42
2019-04-25T00:19:54.733Z,98853.55
2019-04-25T00:22:33.425Z,98845.70
2019-04-25T00:25:25.631Z,98839.25
2019-04-25T00:27:54.648Z,98835.75
2019-04-25T00:30:25.351Z,98833.13
2019-04-25T00:32:54.403Z,98824.05
2019-04-25T00:35:23.601Z,98822.98
2019-04-25T00:37:53.388Z,98816.74
2019-04-25T00:40:22.544Z,98811.30
2019-04-25T00:42:53.417Z,98808.92
2019-04-25T00:45:22.431Z,98800.97
2019-04-25T00:47:52.821Z,98795.13
2019-04-25T00:50:22.050Z,98784.14
2019-04-25T00:52:53.308Z,98784.94
2019-04-25T00:55:28.736Z,98791.95
2019-04-25T00:57:56.053Z,98794.94
2019-04-25T01:00:51.077Z,98799.67
2019-04-25T01:03:25.179Z,98811.41
2019-04-25T01:05:54.639Z,98814.44
2019-04-25T01:08:23.836Z,98804.84
2019-04-25T01:10:53.234Z,98814.44
2019-04-25T01:13:23.072Z,98808.78
2019-04-25T01:15:52.850Z,98820.20
2019-04-25T01:18:23.214Z,98819.78
2019-04-25T01:20:54.446Z,98823.72
2019-04-25T01:23:23.808Z,98823.72
2019-04-25T01:25:53.739Z,98822.88
2019-04-25T01:28:24.335Z,98829.88
2019-04-25T01:30:55.027Z,98838.12
2019-04-25T01:33:25.649Z,98839.91
2019-04-25T01:36:09.668Z,98846.96
2019-04-25T01:38:49.064Z,98854.08
2019-04-25T01:41:27.144Z,98855.06
2019-04-25T01:43:59.876Z,98862.03
2019-04-25T01:46:29.322Z,98868.49
2019-04-25T01:48:58.707Z,98864.81
2019-04-25T01:51:27.896Z,98871.02
2019-04-25T01:53:56.919Z,98875.46
2019-04-25T01:56:26.021Z,98880.86
2019-04-25T01:58:55.958Z,98878.05
2019-04-25T02:01:25.131Z,98869.69
2019-04-25T02:03:54.655Z,98881.54
2019-04-25T02:06:24.874Z,98886.69
2019-04-25T02:08:55.260Z,98884.16
2019-04-25T02:11:31.397Z,98880.13
2019-04-25T02:14:00.395Z,98868.02
2019-04-25T02:16:29.832Z,98872.80
2019-04-25T02:18:59.830Z,98871.48
2019-04-25T02:21:28.911Z,98870.94
2019-04-25T02:23:58.151Z,98869.22
2019-04-25T02:26:27.254Z,98881.17
2019-04-25T02:28:57.234Z,98888.61
2019-04-25T02:31:26.416Z,98887.70
2019-04-25T02:33:58.797Z,98896.78
2019-04-25T02:36:26.188Z,98889.81
2019-04-25T02:39:00.532Z,98886.32
2019-04-25T02:41:26.037Z,98895.65
2019-04-25T02:43:59.754Z,98884.20
2019-04-25T02:46:44.891Z,98885.58
2019-04-25T02:49:41.809Z,98875.48
2019-04-25T02:52:18.761Z,98880.23
2019-04-25T02:54:47.867Z,98889.02
2019-04-25T02:57:16.985Z,98910.02
2019-04-25T02:59:46.087Z,98890.63
2019-04-25T03:02:15.639Z,98898.91
2019-04-25T03:04:44.868Z,98892.30
2019-04-25T03:07:16.646Z,98909.27
2019-04-25T03:09:45.232Z,98903.17
2019-04-25T03:12:26.919Z,98908.32
2019-04-25T03:14:45.128Z,98912.59
2019-04-25T03:17:14.604Z,98911.61
2019-04-25T03:20:07.936Z,98905.30
2019-04-25T03:22:36.555Z,98896.11
2019-04-25T03:25:10.768Z,98901.39
2019-04-25T03:27:36.970Z,98899.17
2019-04-25T03:30:12.969Z,98906.25
2019-04-25T03:32:38.300Z,98900.41
2019-04-25T03:35:07.360Z,98904.94
2019-04-25T03:37:36.487Z,98907.48
2019-04-25T03:40:06.625Z,98904.02
2019-04-25T03:42:36.807Z,98904.53
2019-04-25T03:45:06.133Z,98908.55
2019-04-25T03:47:35.479Z,98918.58
2019-04-25T03:50:06.107Z,98919.70
2019-04-25T03:52:35.603Z,98915.36
2019-04-25T03:55:07.258Z,98916.70
2019-04-25T03:57:36.017Z,98920.23
2019-04-25T04:00:06.637Z,98920.78
2019-04-25T04:02:36.589Z,98913.89
2019-04-25T04:05:06.982Z,98913.18
2019-04-25T04:07:36.781Z,98909.51
2019-04-25T04:10:06.642Z,98927.63
2019-04-25T04:12:35.742Z,98916.75
2019-04-25T04:15:05.798Z,98925.94
2019-04-25T04:17:49.510Z,98912.38
2019-04-25T04:20:36.075Z,98928.97
2019-04-25T04:23:14.385Z,98932.50
2019-04-25T04:25:43.861Z,98941.28
2019-04-25T04:28:14.062Z,98934.76
2019-04-25T04:30:45.467Z,98930.28
2019-04-25T04:33:25.722Z,98939.06
2019-04-25T04:35:45.409Z,98925.53
2019-04-25T04:38:15.527Z,98926.34
2019-04-25T04:40:45.666Z,98910.69
2019-04-25T04:43:16.301Z,98905.84
2019-04-25T04:45:45.824Z,98922.00
2019-04-25T04:48:15.577Z,98931.92
2019-04-25T04:50:44.838Z,98934.08
2019-04-25T04:53:14.965Z,98944.05
2019-04-25T04:55:44.900Z,98942.22
2019-04-25T04:58:15.046Z,98926.80
2019-04-25T05:00:44.949Z,98943.80
2019-04-25T05:03:34.327Z,98952.27
2019-04-25T05:06:13.903Z,98945.64
2019-04-25T05:08:49.019Z,98942.73
2019-04-25T05:11:18.213Z,98930.22
2019-04-25T05:13:47.236Z,98953.28
2019-04-25T05:16:16.343Z,98948.18
2019-04-25T05:18:45.417Z,98939.13
2019-04-25T05:21:15.776Z,98953.09
2019-04-25T05:23:45.312Z,98959.25
2019-04-25T05:26:15.764Z,98950.77
2019-04-25T05:28:45.479Z,98951.73
2019-04-25T05:31:39.695Z,98947.13
2019-04-25T05:34:08.878Z,98950.91
2019-04-25T05:36:37.945Z,98935.88
2019-04-25T05:39:10.397Z,98932.97
2019-04-25T05:41:58.931Z,98945.03
2019-04-25T05:44:27.994Z,98935.16
2019-04-25T05:46:57.140Z,98929.21
2019-04-25T05:49:26.516Z,98954.06
2019-04-25T05:51:55.615Z,98930.91
2019-04-25T05:54:25.647Z,98928.54
2019-04-25T05:56:54.939Z,98932.97
2019-04-25T05:59:25.541Z,98932.71
2019-04-25T06:01:54.795Z,98921.36
2019-04-25T06:04:24.753Z,98932.54
2019-04-25T06:06:55.187Z,98951.20
2019-04-25T06:09:55.655Z,98957.44
2019-04-25T06:12:43.496Z,98959.19
2019-04-25T06:15:13.255Z,98958.55
2019-04-25T06:18:19.878Z,98947.54
2019-04-25T06:20:49.156Z,98950.78
2019-04-25T06:23:45.787Z,98974.75
2019-04-25T06:26:22.810Z,98962.14
2019-04-25T06:28:52.259Z,98972.52
2019-04-25T06:31:19.898Z,98967.37
2019-04-25T06:33:49.117Z,98976.72
2019-04-25T06:36:18.284Z,98962.86
2019-04-25T06:38:47.459Z,98980.80
2019-04-25T06:41:16.555Z,98982.30
2019-04-25T06:43:47.286Z,98975.24
2019-04-25T06:46:38.407Z,98965.50
2019-04-25T06:49:14.978Z,98968.86
2019-04-25T06:51:51.431Z,98964.30
2019-04-25T06:54:21.784Z,98971.00
2019-04-25T06:56:51.026Z,98979.52
2019-04-25T06:59:20.156Z,98978.33
2019-04-25T07:01:49.350Z,98983.82
2019-04-25T07:04:18.442Z,98992.48
2019-04-25T07:06:49.451Z,98986.55
2019-04-25T07:09:18.516Z,99009.56
2019-04-25T07:11:48.241Z,99003.80
2019-04-25T07:14:17.542Z,99004.67
2019-04-25T07:16:46.663Z,99007.44
2019-04-25T07:19:17.552Z,98997.88
2019-04-25T07:21:46.502Z,99004.51
2019-04-25T07:24:17.497Z,99029.69
2019-04-25T07:26:54.479Z,99020.30
2019-04-25T07:29:43.346Z,99020.66
2019-04-25T07:32:18.721Z,99040.87
2019-04-25T07:34:47.835Z,99027.05
2019-04-25T07:37:16.952Z,99030.47
2019-04-25T07:39:46.038Z,99029.16
2019-04-25T07:42:15.325Z,99034.41
2019-04-25T07:44:52.114Z,99046.69
2019-04-25T07:47:15.950Z,99041.35
2019-04-25T07:49:45.197Z,99024.74
2019-04-25T07:52:14.331Z,99030.41
2019-04-25T07:54:44.017Z,99029.00
2019-04-25T07:57:13.596Z,99016.07
2019-04-25T07:59:43.654Z,99011.58
2019-04-25T08:02:13.385Z,99006.41
2019-04-25T08:04:44.227Z,99012.91
2019-04-25T08:07:14.232Z,99034.81
2019-04-25T08:09:44.276Z,99024.41
2019-04-25T08:12:13.434Z,99026.16
2019-04-25T08:14:54.302Z,99022.91
2019-04-25T08:17:40.923Z,99018.34
2019-04-25T08:20:09.984Z,99026.27
2019-04-25T08:22:52.775Z,99059.50
2019-04-25T08:25:09.986Z,99018.64
2019-04-25T08:27:39.046Z,99018.72
2019-04-25T08:30:08.283Z,99024.89
2019-04-25T08:32:37.614Z,99044.55
2019-04-25T08:35:07.070Z,99026.11
2019-04-25T08:37:36.632Z,99029.77
2019-04-25T08:40:05.965Z,99036.08
2019-04-25T08:42:36.763Z,99038.68
2019-04-25T08:45:08.599Z,99038.80
2019-04-25T08:47:37.689Z,99020.00
2019-04-25T08:50:28.751Z,99025.75
2019-04-25T08:52:54.307Z,99051.23
2019-04-25T08:55:44.065Z,99058.20
2019-04-25T08:58:35.659Z,99040.73
2019-04-25T09:01:23.616Z,99049.29
2019-04-25T09:04:04.705Z,99050.74
2019-04-25T09:06:36.071Z,99069.66
2019-04-25T09:09:07.142Z,99027.94
2019-04-25T09:11:37.970Z,99046.66
2019-04-25T09:14:06.886Z,99036.10
2019-04-25T09:16:36.710Z,99049.00
2019-04-25T09:19:06.094Z,99053.38
2019-04-25T09:21:36.589Z,99041.70
2019-04-25T09:24:06.040Z,99025.52
2019-04-25T09:26:36.902Z,99027.23
2019-04-25T09:29:16.775Z,99052.59
2019-04-25T09:31:38.528Z,99029.89
2019-04-25T09:34:08.056Z,99036.91
2019-04-25T09:36:37.701Z,99017.92
2019-04-25T09:39:20.258Z,99050.32
2019-04-25T09:41:49.363Z,99074.41
2019-04-25T09:44:20.634Z,99033.51
2019-04-25T09:46:49.729Z,99050.86
2019-04-25T09:49:34.983Z,99019.61
2019-04-25T09:52:20.904Z,99026.42
2019-04-25T09:55:06.444Z,99026.42
2019-04-25T09:57:53.186Z,99006.84
2019-04-25T10:00:30.761Z,99021.30
2019-04-25T10:02:59.840Z,99055.19
2019-04-25T10:05:28.968Z,99016.22
2019-04-25T10:07:58.340Z,99037.80
2019-04-25T10:10:27.379Z,99012.44
2019-04-25T10:12:56.466Z,99064.13
2019-04-25T10:16:02.954Z,99026.61
2019-04-25T10:18:33.435Z,99010.94
2019-04-25T10:21:04.389Z,99034.30
2019-04-25T10:23:34.288Z,99041.62
2019-04-25T10:26:03.828Z,99035.39
2019-04-25T10:28:33.669Z,99019.09
2019-04-25T10:31:03.547Z,98948.91
2019-04-25T10:33:32.856Z,99031.50
2019-04-25T10:36:02.002Z,99058.02
2019-04-25T10:38:33.039Z,99044.62
2019-04-25T10:41:04.150Z,99029.05
2019-04-25T10:43:34.222Z,99025.75
2019-04-25T10:46:05.220Z,99050.06
2019-04-25T10:48:35.416Z,99047.89
2019-04-25T10:51:04.663Z,99033.16
2019-04-25T10:53:34.009Z,99031.45
2019-04-25T10:56:05.608Z,99024.53
2019-04-25T10:58:35.321Z,99021.41
2019-04-25T11:36:08.985Z,99004.18
2019-04-25T11:46:56.026Z,98997.85
2019-04-25T11:49:25.229Z,99003.41
2019-04-25T11:51:54.488Z,98999.06
2019-04-25T11:54:24.277Z,98983.64
2019-04-25T11:56:54.772Z,98981.44
2019-04-25T11:59:24.771Z,98981.44
2019-04-25T12:01:54.761Z,98968.57
2019-04-25T12:04:24.938Z,98953.77
2019-04-25T12:06:54.069Z,98976.22
2019-04-25T12:09:24.088Z,98944.53
2019-04-25T12:11:54.478Z,98948.44
2019-04-25T12:14:25.208Z,98953.39
2019-04-25T12:16:56.071Z,98943.67
2019-04-25T12:19:35.032Z,98939.50
2019-04-25T12:21:58.182Z,98943.48
2019-04-25T12:24:27.675Z,98918.73
2019-04-25T12:26:57.027Z,98914.00
2019-04-25T12:29:26.261Z,98909.17
2019-04-25T12:31:56.347Z,98916.48
2019-04-25T12:34:25.551Z,98903.34
2019-04-25T12:36:54.637Z,98906.73
2019-04-25T12:39:24.414Z,98931.70
2019-04-25T12:41:54.446Z,98923.30
2019-04-25T12:44:47.523Z,98927.78
2019-04-25T12:47:20.554Z,98929.28
2019-04-25T12:49:50.636Z,98943.52
2019-04-25T12:52:19.829Z,98933.81
2019-04-25T12:54:49.281Z,98933.67
2019-04-25T12:57:19.105Z,98928.58
2019-04-25T12:59:49.194Z,98927.30
2019-04-25T13:02:18.553Z,98945.41
2019-04-25T13:04:47.850Z,98929.19
2019-04-25T13:07:17.153Z,98916.76
2019-04-25T13:09:47.821Z,98920.66
2019-04-25T13:12:17.588Z,98938.23
2019-04-25T13:14:46.852Z,98944.97
2019-04-25T13:17:16.346Z,98938.28
2019-04-25T13:19:45.478Z,98926.08
2019-04-25T13:22:14.948Z,98922.83
2019-04-25T13:24:44.074Z,98926.02
2019-04-25T13:27:44.588Z,98946.09
2019-04-25T13:30:25.685Z,98932.63
2019-04-25T13:33:13.040Z,98917.80
2019-04-25T13:35:49.134Z,98931.15
2019-04-25T13:38:18.478Z,98936.05
2019-04-25T13:40:48.016Z,98941.91
2019-04-25T13:43:17.129Z,98930.81
2019-04-25T13:45:46.243Z,98937.70
2019-04-25T13:48:15.455Z,98943.22
2019-04-25T13:50:44.577Z,98935.19
2019-04-25T13:53:13.863Z,98918.54
2019-04-25T13:55:43.211Z,98914.46
2019-04-25T13:58:14.346Z,98867.95
2019-04-25T14:00:44.215Z,98897.43
2019-04-25T14:03:13.330Z,98908.22
2019-04-25T14:05:43.843Z,98891.08
2019-04-25T14:08:14.829Z,98892.54
2019-04-25T14:10:44.441Z,98882.55
2019-04-25T14:13:13.691Z,98878.33
2019-04-25T14:15:47.940Z,98873.25
2019-04-25T14:18:28.844Z,98878.69
2019-04-25T14:21:05.608Z,98871.17
2019-04-25T14:23:35.739Z,98873.63
2019-04-25T14:26:04.775Z,98862.95
2019-04-25T14:28:35.396Z,98875.34
2019-04-25T14:31:04.964Z,98862.62
2019-04-25T14:33:35.404Z,98860.01
2019-04-25T14:36:04.506Z,98865.41
2019-04-25T14:38:34.215Z,98849.38
2019-04-25T14:41:05.219Z,98842.55
2019-04-25T14:43:34.368Z,98858.11
2019-04-25T14:46:03.747Z,98864.30
2019-04-25T14:48:33.530Z,98858.88
2019-04-25T14:51:02.680Z,98863.45
2019-04-25T14:53:33.608Z,98874.81
2019-04-25T14:56:19.729Z,98875.19
2019-04-25T14:58:48.840Z,98872.48
2019-04-25T15:01:20.288Z,98869.38
2019-04-25T15:03:49.382Z,98878.08
2019-04-25T15:06:18.438Z,98877.96
2019-04-25T15:08:47.783Z,98874.18
2019-04-25T15:11:16.819Z,98868.07
2019-04-25T15:13:46.271Z,98868.78
2019-04-25T15:16:15.471Z,98868.53
2019-04-25T15:18:46.880Z,98877.80
2019-04-25T15:21:18.608Z,98876.94
2019-04-25T15:23:59.355Z,98872.68
2019-04-25T15:26:17.907Z,98874.14
2019-04-25T15:28:46.947Z,98873.19
2019-04-25T15:31:16.090Z,98874.02
2019-04-25T15:33:45.194Z,98867.59
2019-04-25T15:36:45.401Z,98864.41
2019-04-25T15:39:38.740Z,98863.30
2019-04-25T15:42:33.968Z,98868.27
2019-04-25T15:45:25.304Z,98867.20
2019-04-25T15:47:55.661Z,98855.50
2019-04-25T15:50:26.313Z,98846.16
2019-04-25T15:52:55.615Z,98840.80
2019-04-25T15:55:24.666Z,98843.83
2019-04-25T15:57:53.733Z,98854.03
2019-04-25T16:00:30.711Z,98853.40
2019-04-25T16:02:59.813Z,98857.25
2019-04-25T16:05:29.914Z,98853.82
2019-04-25T16:07:59.006Z,98853.03
2019-04-25T16:10:28.408Z,98858.78
2019-04-25T16:12:57.659Z,98858.78
2019-04-25T16:15:27.652Z,98860.60
2019-04-25T16:17:56.938Z,98857.06
2019-04-25T16:20:27.132Z,98858.05
2019-04-25T16:22:57.011Z,98871.84
2019-04-25T16:25:26.112Z,98860.81
2019-04-25T16:27:55.206Z,98853.53
2019-04-25T16:30:28.417Z,98864.41
2019-04-25T16:32:57.650Z,98874.33
2019-04-25T16:35:26.725Z,98868.66
2019-04-25T16:37:55.824Z,98869.88
2019-04-25T16:40:25.186Z,98877.83
2019-04-25T16:42:54.627Z,98876.12
2019-04-25T16:45:24.763Z,98873.47
2019-04-25T16:47:53.909Z,98868.03
2019-04-25T16:50:23.523Z,98867.55
2019-04-25T16:52:52.632Z,98870.99
2019-04-25T16:55:21.852Z,98869.08
2019-04-25T16:57:51.281Z,98872.25
2019-04-25T17:00:54.651Z,98875.78
2019-04-25T17:03:26.676Z,98883.23
2019-04-25T17:05:55.794Z,98887.77
2019-04-25T17:08:24.887Z,98896.53
2019-04-25T17:10:53.921Z,98899.22
2019-04-25T17:13:25.592Z,98911.02
2019-04-25T17:16:04.811Z,98918.69
2019-04-25T17:18:39.308Z,98939.22
2019-04-25T17:21:11.667Z,98955.96
2019-04-25T17:23:40.146Z,98960.78
2019-04-25T17:26:09.553Z,98968.88
2019-04-25T17:28:41.215Z,98974.30
2019-04-25T17:31:19.443Z,98972.29
2019-04-25T17:34:01.610Z,98982.94
2019-04-25T17:36:43.935Z,98989.95
2019-04-25T17:39:44.273Z,98989.77
2019-04-25T17:42:15.850Z,98995.52
2019-04-25T17:44:45.080Z,99003.53
2019-04-25T17:47:14.490Z,99007.89
2019-04-25T17:49:49.193Z,99002.66
2019-04-25T17:52:22.528Z,98991.73
2019-04-25T17:54:52.319Z,98990.30
2019-04-25T17:57:21.708Z,98993.11
2019-04-25T17:59:51.439Z,98983.73
2019-04-25T18:02:24.006Z,98988.63
2019-04-25T18:04:53.181Z,98993.73
2019-04-25T18:07:22.271Z,98997.58
2019-04-25T18:09:51.368Z,98981.66
2019-04-25T18:12:20.467Z,98976.36
2019-04-25T18:14:50.311Z,98974.53
2019-04-25T18:17:19.373Z,98979.14
2019-04-25T18:19:54.251Z,98997.34
2019-04-25T18:22:57.488Z,99004.77
2019-04-25T18:25:57.481Z,99008.19
2019-04-25T18:28:45.765Z,99016.20
2019-04-25T18:31:15.017Z,99017.68
2019-04-25T18:33:44.124Z,99019.59
2019-04-25T18:36:32.486Z,99027.49
2019-04-25T18:39:08.369Z,99032.44
2019-04-25T18:41:59.727Z,99050.10
2019-04-25T18:44:29.011Z,99060.65
2019-04-25T18:46:58.275Z,99070.16
2019-04-25T18:49:28.415Z,99074.59
2019-04-25T18:52:03.146Z,99087.80
2019-04-25T18:54:47.406Z,99092.14
2019-04-25T18:57:24.857Z,99098.58
2019-04-25T19:00:04.003Z,99106.14
2019-04-25T19:02:52.230Z,99101.10
2019-04-25T19:05:43.549Z,99111.17
2019-04-25T19:08:13.099Z,99113.53
2019-04-25T19:10:42.987Z,99117.22
2019-04-25T19:13:22.713Z,99137.14
2019-04-25T19:15:52.456Z,99132.55
2019-04-25T19:18:21.735Z,99122.46
2019-04-25T19:20:52.386Z,99129.93
2019-04-25T19:23:22.098Z,99144.20
2019-04-25T19:25:52.170Z,99129.19
2019-04-25T19:28:21.414Z,99145.50
2019-04-25T19:30:51.386Z,99154.98
2019-04-25T19:33:34.738Z,99148.67
2019-04-25T19:35:53.479Z,99186.58
2019-04-25T19:38:24.157Z,99183.25
2019-04-25T19:41:09.522Z,99173.30
2019-04-25T19:44:07.073Z,99194.25
2019-04-25T19:46:44.953Z,99182.59
2019-04-25T19:49:14.314Z,99202.27
2019-04-25T19:51:43.488Z,99212.35
2019-04-25T19:54:12.732Z,99199.88
2019-04-25T19:56:42.696Z,99201.44
2019-04-25T19:59:15.789Z,99208.02
2019-04-25T20:01:45.924Z,99197.54
2019-04-25T20:04:34.259Z,99192.02
2019-04-25T20:07:24.069Z,99190.05
2019-04-25T20:10:10.882Z,99184.75
2019-04-25T20:12:48.521Z,99194.88
2019-04-25T20:15:16.400Z,99200.39
2019-04-25T20:17:47.705Z,99184.20
2019-04-25T20:20:17.413Z,98798.55
2019-04-25T20:22:46.527Z,99183.82
2019-04-25T20:25:15.730Z,99181.17
2019-04-25T20:27:45.662Z,99195.33
2019-04-25T20:30:15.941Z,99196.36
2019-04-25T20:32:46.312Z,99187.21
2019-04-25T20:35:16.048Z,99185.59
2019-04-25T20:37:46.034Z,99183.63
2019-04-25T20:40:16.308Z,99190.41
2019-04-25T20:42:46.974Z,99196.77
2019-04-25T20:45:16.783Z,99197.70
2019-04-25T20:47:46.580Z,99200.89
2019-04-25T20:50:15.961Z,99194.85
2019-04-25T20:52:45.063Z,99193.59
2019-04-25T20:55:14.292Z,99197.56
2019-04-25T20:57:43.408Z,99201.95
2019-04-25T21:00:12.675Z,99205.05
2019-04-25T21:02:41.841Z,99219.17
2019-04-25T21:05:11.050Z,99226.30
2019-04-25T21:07:40.337Z,99222.09
2019-04-25T21:10:09.630Z,99214.82
2019-04-25T21:12:38.926Z,99214.92
2019-04-25T21:15:30.441Z,99210.55
2019-04-25T21:18:07.317Z,99200.02
2019-04-25T21:20:36.503Z,99193.02
2019-04-25T21:23:05.711Z,99180.06
2019-04-25T21:25:34.896Z,99183.41
2019-04-25T21:28:04.023Z,99184.02
2019-04-25T21:30:33.201Z,99178.00
2019-04-25T21:33:02.768Z,99179.14
2019-04-25T21:35:32.194Z,99186.42
2019-04-25T21:38:01.714Z,99185.86
2019-04-25T21:40:41.723Z,99195.33
2019-04-25T21:43:23.945Z,99197.25
2019-04-25T21:45:54.247Z,99202.15
2019-04-25T21:48:23.851Z,99184.44
2019-04-25T21:50:54.787Z,99184.05
2019-04-25T21:53:27.305Z,99179.84
2019-04-25T21:55:56.911Z,99177.30
2019-04-25T21:58:26.901Z,99197.73
2019-04-25T22:01:15.148Z,99209.73
2019-04-25T22:03:44.334Z,99215.47
2019-04-25T22:06:13.718Z,99218.65
2019-04-25T22:08:42.843Z,99224.88
2019-04-25T22:11:12.050Z,99241.30
2019-04-25T22:13:41.413Z,99248.44
2019-04-25T22:16:10.962Z,99253.78
2019-04-25T22:18:40.181Z,99246.34
2019-04-25T22:21:09.446Z,99245.52
2019-04-25T22:23:38.975Z,99246.84
2019-04-25T22:26:08.379Z,99234.63
2019-04-25T22:28:37.613Z,99229.20
2019-04-25T22:31:12.234Z,99222.20
2019-04-25T22:34:15.557Z,99216.52
2019-04-25T22:36:44.941Z,99227.20
2019-04-25T22:39:14.860Z,99235.81
2019-04-25T22:41:46.837Z,99227.02
2019-04-25T22:44:18.169Z,99208.65
2019-04-25T22:46:47.713Z,99206.88
2019-04-25T22:49:16.773Z,99202.58
2019-04-25T22:51:45.847Z,99208.79
2019-04-25T22:54:15.222Z,99204.29
2019-04-25T22:56:44.381Z,99207.47
2019-04-25T22:59:13.737Z,99203.61
2019-04-25T23:01:51.041Z,99199.79
2019-04-25T23:04:28.842Z,99204.34
2019-04-25T23:07:06.702Z,99188.97
2019-04-25T23:09:37.050Z,99184.58
2019-04-25T23:12:06.888Z,99199.64
2019-04-25T23:14:36.318Z,99202.03
2019-04-25T23:17:05.514Z,99190.20
2019-04-25T23:19:35.024Z,99179.28
2019-04-25T23:22:05.465Z,99172.77
2019-04-25T23:24:37.222Z,99169.64
2019-04-25T23:27:20.398Z,99164.89
2019-04-25T23:29:49.418Z,99166.75
2019-04-25T23:32:18.725Z,99157.64
2019-04-25T23:34:47.801Z,99146.59
2019-04-25T23:37:16.893Z,99141.51
2019-04-25T23:39:46.235Z,99147.86
2019-04-25T23:42:15.632Z,99159.01
2019-04-25T23:44:45.049Z,99162.18
2019-04-25T23:47:14.410Z,99167.86
2019-04-25T23:49:43.538Z,99170.10
2019-04-25T23:52:13.252Z,99173.98
2019-04-25T23:54:42.420Z,99177.10
2019-04-25T23:57:11.662Z,99184.63
2019-04-25T23:59:40.786Z,99193.20
